Time;durP1;ratioP1;P1;durP2;ratioP2;P2;SDS_P1;SDS_P2;PMS_P1;PMS_P2;Temp;Humidity;BMP_temperature;BMP_pressure;BME280_temperature;BME280_humidity;BME280_pressure;Samples;Min_cycle;Max_cycle;Signal;HPM_P1;HPM_P2
2023/07/20 00:02:10;;;;;;;10.00;8.15;;;;;;;26.18;100.00;100179.88;5055305;28;20274;-73
2023/07/20 00:04:36;;;;;;;11.05;8.13;;;;;;;26.12;100.00;100159.56;5054993;28;20028;-72
2023/07/20 00:07:01;;;;;;;11.25;8.13;;;;;;;26.35;100.00;100172.16;5054981;28;20406;-73
2023/07/20 00:09:27;;;;;;;9.68;7.93;;;;;;;26.31;100.00;100249.03;5053972;28;20045;-73
2023/07/20 00:11:53;;;;;;;10.93;8.77;;;;;;;26.68;100.00;100322.25;5055217;28;20490;-74
2023/07/20 00:17:40;;;;;;;12.30;7.43;;;;;;;26.31;100.00;100373.38;5055546;28;20051;-73
2023/07/20 00:20:06;;;;;;;25.20;7.53;;;;;;;26.96;100.00;100365.00;5055089;28;20448;-73
2023/07/20 00:22:32;;;;;;;26.17;6.65;;;;;;;27.21;100.00;100313.03;5055723;28;20100;-73
2023/07/20 00:28:19;;;;;;;;;;;;;;;27.76;100.00;100293.06;5056035;28;20085;-73
2023/07/20 00:30:44;;;;;;;26.60;5.32;;;;;;;27.39;100.00;100230.34;5054517;28;19987;-73
2023/07/20 00:33:11;;;;;;;27.15;4.57;;;;;;;27.85;100.00;100252.16;5055031;28;20497;-72
2023/07/20 00:35:37;;;;;;;25.15;4.38;;;;;;;27.52;100.00;100182.19;5054589;28;20122;-74
2023/07/20 00:38:03;;;;;;;22.85;4.00;;;;;;;27.68;100.00;100217.16;5054592;28;20492;-74
2023/07/20 00:40:35;;;;;;;26.27;4.88;;;;;;;27.41;100.00;100154.47;5052912;28;20100;-75
2023/07/20 00:43:00;;;;;;;17.88;4.10;;;;;;;27.75;100.00;100201.72;5054413;28;20032;-75
2023/07/20 00:48:47;;;;;;;14.02;3.55;;;;;;;27.37;100.00;100127.00;5055109;28;20086;-75
2023/07/20 00:51:13;;;;;;;18.40;3.45;;;;;;;27.36;100.00;100102.66;5054827;28;20029;-74
2023/07/20 00:53:38;;;;;;;11.48;3.47;;;;;;;27.23;100.00;100101.34;5053379;28;20390;-73
2023/07/20 00:56:04;;;;;;;21.77;3.90;;;;;;;27.22;100.00;100104.91;5054279;28;20578;-74
2023/07/20 01:01:51;;;;;;;;;;;;;;;27.58;100.00;100150.22;5055108;28;20457;-73
2023/07/20 01:04:17;;;;;;;17.35;3.50;;;;;;;27.35;100.00;100119.31;5054468;28;19909;-73
2023/07/20 01:06:57;;;;;;;12.85;3.72;;;;;;;27.35;100.00;100100.19;5054524;28;20033;-74
2023/07/20 01:09:34;;;;;;;16.13;3.40;;;;;;;27.48;100.00;100136.41;5052964;28;20059;-73
2023/07/20 01:12:08;;;;;;;12.27;3.20;;;;;;;27.55;100.00;100138.31;5054528;28;20071;-74
2023/07/20 01:14:34;;;;;;;14.30;3.22;;;;;;;27.40;100.00;100118.84;5054410;28;20024;-73
2023/07/20 01:17:00;;;;;;;13.15;3.25;;;;;;;26.87;100.00;100050.81;5053810;28;20021;-73
2023/07/20 01:19:25;;;;;;;13.98;3.05;;;;;;;27.20;100.00;100054.59;5053164;28;20116;-73
2023/07/20 01:25:28;;;;;;;14.65;3.03;;;;;;;27.42;100.00;100078.56;5054509;28;20111;-72
2023/07/20 01:28:12;;;;;;;16.75;3.25;;;;;;;27.41;100.00;100061.22;5054176;28;20021;-75
2023/07/20 01:34:01;;;;;;;;;;;;;;;27.53;100.00;100043.56;5065222;28;20040;-74
2023/07/20 01:36:30;;;;;;;17.25;3.13;;;;;;;27.56;100.00;100019.72;5053755;28;19905;-75
2023/07/20 01:38:57;;;;;;;10.73;2.58;;;;;;;27.57;100.00;99978.75;5053995;28;20025;-74
2023/07/20 01:41:22;;;;;;;10.93;2.88;;;;;;;27.38;100.00;99943.16;5053865;28;20440;-74
2023/07/20 01:47:09;;;;;;;;;;;;;;;27.70;100.00;99955.66;5054065;28;20087;-72
2023/07/20 01:49:35;;;;;;;13.07;3.00;;;;;;;27.54;100.00;99939.84;5053797;28;20355;-75
2023/07/20 01:52:00;;;;;;;12.82;3.00;;;;;;;27.18;100.00;99894.63;5052215;28;20313;-75
2023/07/20 01:54:26;;;;;;;12.13;3.00;;;;;;;27.24;100.00;99894.84;5053606;28;20047;-73
2023/07/20 01:56:51;;;;;;;8.25;2.60;;;;;;;27.43;100.00;99913.00;5053666;28;20025;-73
2023/07/20 01:59:16;;;;;;;15.35;3.17;;;;;;;27.31;100.00;99887.25;5053251;28;20566;-73
2023/07/20 02:01:42;;;;;;;13.80;3.50;;;;;;;27.39;100.00;99901.19;5053411;28;20029;-74
2023/07/20 02:04:07;;;;;;;11.02;3.30;;;;;;;27.52;100.00;99941.78;5053338;28;20025;-73
2023/07/20 02:06:33;;;;;;;12.35;3.42;;;;;;;27.47;100.00;99926.59;5053132;28;20021;-76
2023/07/20 02:08:58;;;;;;;10.48;3.40;;;;;;;27.34;100.00;99940.03;5052196;28;20041;-73
2023/07/20 02:11:24;;;;;;;11.73;3.33;;;;;;;27.18;100.00;99894.63;5051807;28;20060;-73
2023/07/20 02:13:49;;;;;;;13.85;3.25;;;;;;;27.41;100.00;99922.78;5051682;28;20054;-73
2023/07/20 02:16:15;;;;;;;10.60;2.75;;;;;;;27.54;100.00;99947.69;5053226;28;20536;-76
2023/07/20 02:18:40;;;;;;;13.95;3.17;;;;;;;27.10;100.00;99868.44;5053247;28;20033;-73
2023/07/20 02:21:05;;;;;;;9.23;3.10;;;;;;;27.29;100.00;99930.97;5051707;28;20052;-73
2023/07/20 02:23:31;;;;;;;14.00;3.47;;;;;;;27.13;100.00;99892.50;5052761;28;20025;-74
2023/07/20 02:25:57;;;;;;;11.70;3.50;;;;;;;26.96;100.00;99888.09;5051937;28;20119;-74
2023/07/20 02:31:44;;;;;;;20.17;4.07;;;;;;;26.48;100.00;99872.72;5053279;28;20411;-73
2023/07/20 02:34:09;;;;;;;16.38;4.07;;;;;;;26.48;100.00;99890.19;5053126;28;20025;-73
2023/07/20 02:36:35;;;;;;;22.52;4.40;;;;;;;26.70;100.00;99926.31;5051868;28;20039;-73
2023/07/20 02:39:03;;;;;;;15.73;3.40;;;;;;;27.01;100.00;99966.78;5053071;28;20028;-73
2023/07/20 02:41:30;;;;;;;13.45;3.47;;;;;;;26.99;100.00;99950.44;5053004;28;20025;-76
2023/07/20 02:43:56;;;;;;;16.85;3.70;;;;;;;26.62;100.00;99910.56;5053122;28;20087;-74
2023/07/20 02:46:22;;;;;;;12.52;3.42;;;;;;;26.85;100.00;99965.78;5052860;28;20497;-73
2023/07/20 02:52:09;;;;;;;;;;;;;;;26.84;100.00;99998.09;5053179;28;20090;-73
2023/07/20 02:54:34;;;;;;;8.37;3.10;;;;;;;26.50;100.00;99943.03;5051267;28;19921;-75
2023/07/20 02:57:01;;;;;;;11.20;3.67;;;;;;;26.89;100.00;99988.84;5052043;28;20283;-72
2023/07/20 02:59:26;;;;;;;13.00;3.60;;;;;;;26.68;100.00;99990.84;5051467;28;20449;-72
2023/07/20 03:05:14;;;;;;;18.80;3.63;;;;;;;26.39;100.00;100014.44;5052602;28;20163;-75
2023/07/20 03:07:39;;;;;;;16.33;3.22;;;;;;;26.54;100.00;100015.63;5051880;28;20087;-75
2023/07/20 03:10:08;;;;;;;10.82;3.47;;;;;;;26.10;100.00;99981.59;5052404;28;20049;-75
2023/07/20 03:12:34;;;;;;;15.82;3.75;;;;;;;25.92;100.00;99933.72;5052385;28;20040;-75
2023/07/20 03:14:59;;;;;;;14.23;3.92;;;;;;;26.38;100.00;100031.06;5052098;28;20138;-75
2023/07/20 03:17:25;;;;;;;14.45;4.68;;;;;;;26.24;100.00;100047.16;5051928;28;20094;-76
2023/07/20 03:19:50;;;;;;;18.52;6.03;;;;;;;26.16;100.00;100054.03;5052206;28;20021;-75
2023/07/20 03:25:38;;;;;;;18.35;7.78;;;;;;;25.65;100.00;100060.34;5052688;28;20071;-75
2023/07/20 03:28:04;;;;;;;18.20;5.30;;;;;;;25.42;100.00;100085.00;5052219;28;20021;-75
2023/07/20 03:30:29;;;;;;;10.05;4.75;;;;;;;25.35;100.00;100037.00;5052175;28;20086;-74
2023/07/20 03:32:54;;;;;;;13.40;4.50;;;;;;;25.40;100.00;100080.88;5051632;28;20061;-75
2023/07/20 03:38:42;;;;;;;15.93;4.70;;;;;;;25.36;100.00;100071.66;5052377;28;20036;-75
2023/07/20 03:44:29;;;;;;;26.60;15.35;;;;;;;25.42;100.00;100131.88;5052402;28;20082;-74
2023/07/20 03:50:16;;;;;;;15.52;6.72;;;;;;;25.78;100.00;100167.72;5052157;28;20098;-74
2023/07/20 03:52:41;;;;;;;18.67;6.30;;;;;;;25.34;100.00;100146.47;5051437;28;20025;-74
2023/07/20 03:55:07;;;;;;;12.73;5.10;;;;;;;25.22;100.00;100096.28;5051743;28;20425;-74
2023/07/20 03:57:33;;;;;;;14.73;5.72;;;;;;;25.92;100.00;100152.66;5050357;28;20043;-73
2023/07/20 04:03:20;;;;;;;11.82;4.32;;;;;;;25.55;100.00;100168.91;5051768;28;20035;-75
2023/07/20 04:09:07;;;;;;;;;;;;;;;25.73;100.00;100206.38;5052368;28;20564;-75
2023/07/20 04:14:54;;;;;;;16.58;5.60;;;;;;;25.62;100.00;100145.75;5053043;28;20143;-75
2023/07/20 04:17:20;;;;;;;12.73;4.85;;;;;;;25.74;100.00;100195.00;5055476;28;20029;-74
2023/07/20 04:19:45;;;;;;;13.90;4.93;;;;;;;25.77;100.00;100206.94;5055344;28;20028;-74
2023/07/20 04:25:38;;;;;;;14.02;4.85;;;;;;;25.78;100.00;100203.38;5055408;28;20036;-75
2023/07/20 04:28:08;;;;;;;12.80;5.38;;;;;;;25.89;100.00;100198.03;5055088;28;20387;-74
2023/07/20 04:30:35;;;;;;;14.90;4.68;;;;;;;25.81;100.00;100207.50;5054140;28;20403;-73
2023/07/20 04:33:00;;;;;;;18.83;4.70;;;;;;;25.91;100.00;100205.75;5054810;28;20048;-72
2023/07/20 04:35:49;;;;;;;11.27;5.05;;;;;;;26.21;100.00;100210.88;5054319;28;20115;-73
2023/07/20 04:41:36;;;;;;;17.73;5.30;;;;;;;26.25;100.00;100228.72;5055326;28;20055;-74
2023/07/20 04:44:01;;;;;;;16.98;6.45;;;;;;;26.32;100.00;100213.34;5054116;28;20463;-73
2023/07/20 04:46:27;;;;;;;17.08;6.28;;;;;;;25.83;100.00;100137.84;5053468;28;20033;-72
2023/07/20 04:48:52;;;;;;;20.13;6.60;;;;;;;26.30;100.00;100163.94;5053767;28;20025;-72
2023/07/20 04:51:20;;;;;;;20.23;6.63;;;;;;;26.68;100.00;100209.22;5066463;28;20029;-74
2023/07/20 04:53:47;;;;;;;18.30;6.93;;;;;;;26.45;100.00;100127.81;5061464;28;20024;-74
2023/07/20 04:56:12;;;;;;;15.02;6.50;;;;;;;26.89;100.00;100155.91;5054940;28;20111;-74
2023/07/20 04:58:37;;;;;;;14.93;7.15;;;;;;;27.16;100.00;100218.59;5054241;28;20108;-72
2023/07/20 05:01:03;;;;;;;17.48;6.45;;;;;;;27.27;100.00;100178.44;5052185;28;20503;-71
2023/07/20 05:03:29;;;;;;;17.25;5.95;;;;;;;27.04;100.00;100123.13;5054158;28;20021;-72
2023/07/20 05:05:54;;;;;;;16.42;6.13;;;;;;;27.47;100.00;100187.03;5054185;28;20032;-73
2023/07/20 05:11:42;;;;;;;18.27;5.70;;;;;;;27.71;100.00;100163.78;5042949;28;20052;-72
2023/07/20 05:14:07;;;;;;;11.85;5.38;;;;;;;27.38;100.00;100097.28;5054180;28;20025;-73
2023/07/20 05:16:32;;;;;;;18.40;5.50;;;;;;;27.49;100.00;100140.69;5052876;28;20035;-72
2023/07/20 05:22:20;;;;;;;16.02;5.75;;;;;;;27.92;100.00;100161.69;5054130;28;20031;-75
2023/07/20 05:24:45;;;;;;;16.00;5.68;;;;;;;27.65;100.00;100109.50;5053923;28;20029;-74
2023/07/20 05:27:11;;;;;;;19.98;6.20;;;;;;;28.29;100.00;100141.47;5053242;28;20036;-74
2023/07/20 05:29:36;;;;;;;16.65;5.85;;;;;;;28.26;100.00;100128.69;5051990;28;20050;-74
2023/07/20 05:35:23;;;;;;;17.90;5.90;;;;;;;28.71;100.00;100131.97;5053787;28;20458;-73
2023/07/20 05:37:49;;;;;;;19.63;6.25;;;;;;;28.97;100.00;100114.44;5053420;28;20024;-73
2023/07/20 05:40:18;;;;;;;14.48;5.57;;;;;;;28.36;100.00;100056.16;5053727;28;20395;-72
2023/07/20 05:42:46;;;;;;;12.38;5.60;;;;;;;28.92;100.00;100090.50;5054832;28;20021;-73
2023/07/20 05:45:12;;;;;;;13.02;5.68;;;;;;;28.72;100.00;100041.19;5055397;28;20111;-72
2023/07/20 05:47:37;;;;;;;14.95;5.88;;;;;;;29.00;100.00;100050.44;5054751;28;20108;-74
2023/07/20 05:50:03;;;;;;;13.02;6.20;;;;;;;29.08;100.00;100032.94;5053797;28;20111;-74
2023/07/20 05:55:54;;;;;;;21.60;6.28;;;;;;;29.50;100.00;100029.44;5053656;28;20407;-74
2023/07/20 06:01:41;;;;;;;14.77;6.07;;;;;;;29.44;100.00;100038.78;5053215;28;20090;-72
2023/07/20 06:04:06;;;;;;;14.10;5.70;;;;;;;29.14;100.00;100013.19;5053201;28;20032;-71
2023/07/20 06:06:32;;;;;;;17.08;6.35;;;;;;;29.43;100.00;100015.38;5052933;28;20035;-71
2023/07/20 06:08:57;;;;;;;18.92;6.80;;;;;;;30.01;100.00;100071.13;5052845;28;20025;-72
2023/07/20 06:11:23;;;;;;;14.80;6.53;;;;;;;30.32;100.00;100076.53;5053048;28;20041;-72
2023/07/20 06:13:48;;;;;;;16.95;6.43;;;;;;;29.73;100.00;100014.75;5053008;28;20017;-72
2023/07/20 06:16:14;;;;;;;15.50;6.90;;;;;;;30.38;100.00;100062.75;5053150;28;20059;-73
2023/07/20 06:18:39;;;;;;;18.10;6.22;;;;;;;30.10;100.00;100006.34;5052752;28;20034;-73
2023/07/20 06:21:04;;;;;;;17.67;6.43;;;;;;;30.94;100.00;100017.13;5052492;28;20108;-73
2023/07/20 06:23:30;;;;;;;18.48;6.15;;;;;;;31.06;100.00;100050.69;5053046;28;20029;-73
2023/07/20 06:25:55;;;;;;;12.30;6.53;;;;;;;31.13;100.00;100038.53;5052952;28;20039;-73
2023/07/20 06:31:42;;;;;;;;;;;;;;;30.71;100.00;99996.84;5053379;28;20052;-72
2023/07/20 06:37:29;;;;;;;;;;;;;;;32.08;100.00;100037.19;5052492;28;20498;-72
2023/07/20 06:39:54;;;;;;;11.47;5.83;;;;;;;32.04;100.00;100010.41;5052428;28;19948;-73
2023/07/20 06:42:19;;;;;;;14.52;5.95;;;;;;;31.75;100.00;99959.53;5050589;28;20269;-74
2023/07/20 06:48:20;;;;;;;16.20;6.00;;;;;;;32.18;100.00;99999.09;5053308;28;20089;-74
2023/07/20 06:50:45;;;;;;;10.43;5.30;;;;;;;32.85;100.00;100001.59;5053335;28;20029;-75
2023/07/20 06:53:10;;;;;;;10.85;6.10;;;;;;;33.06;100.00;100005.09;5053760;28;20081;-76
2023/07/20 06:55:36;;;;;;;11.88;6.03;;;;;;;32.41;100.00;99999.81;5052825;28;20032;-75
2023/07/20 06:58:01;;;;;;;15.93;6.10;;;;;;;31.95;100.00;99984.38;5052736;28;20375;-74
2023/07/20 07:00:27;;;;;;;10.13;6.00;;;;;;;32.92;100.00;99999.88;5052650;28;20460;-74
2023/07/20 07:02:52;;;;;;;14.55;6.63;;;;;;;32.49;100.00;99969.16;5051184;28;20028;-74
2023/07/20 07:08:39;;;;;;;11.50;6.53;;;;;;;32.98;100.00;99985.97;5052950;28;20028;-74
2023/07/20 07:11:05;;;;;;;14.02;6.20;;;;;;;32.16;100.00;99921.28;5084289;28;20045;-75
2023/07/20 07:13:30;;;;;;;12.80;5.88;;;;;;;33.00;100.00;99960.25;5052499;28;20498;-74
2023/07/20 07:15:56;;;;;;;9.35;6.28;;;;;;;33.22;100.00;99967.97;5052571;28;20017;-74
2023/07/20 07:18:21;;;;;;;10.77;6.57;;;;;;;32.24;100.00;99943.09;5052615;28;20059;-73
2023/07/20 07:20:53;;;;;;;13.85;6.82;;;;;;;32.65;100.00;99971.56;5052443;28;20444;-73
2023/07/20 07:23:18;;;;;;;12.25;5.93;;;;;;;33.25;100.00;99941.22;5052362;28;20048;-73
2023/07/20 07:29:05;;;;;;;12.38;5.93;;;;;;;33.24;100.00;99970.41;5052156;28;20125;-73
2023/07/20 07:31:36;;;;;;;12.50;6.45;;;;;;;33.22;100.00;99936.31;5050326;28;20029;-72
2023/07/20 07:34:02;;;;;;;12.87;6.10;;;;;;;33.77;100.00;99937.41;5051852;28;20025;-72
2023/07/20 07:39:51;;;;;;;10.93;6.05;;;;;;;33.80;100.00;99974.78;5051707;28;20036;-72
2023/07/20 07:42:18;;;;;;;9.07;6.40;;;;;;;33.99;100.00;99974.09;5050195;28;20021;-73
2023/07/20 07:44:44;;;;;;;8.80;6.40;;;;;;;33.34;100.00;99931.34;5051409;28;20525;-72
2023/07/20 07:47:12;;;;;;;10.52;6.63;;;;;;;33.71;100.00;99959.28;5051794;28;20032;-72
2023/07/20 07:49:38;;;;;;;8.65;6.15;;;;;;;33.40;100.00;99883.09;5052385;28;20369;-73
2023/07/20 07:52:03;;;;;;;9.68;6.70;;;;;;;32.67;100.00;99857.09;5054583;28;20029;-74
2023/07/20 07:54:29;;;;;;;9.45;5.85;;;;;;;33.95;100.00;99935.88;5055783;28;20021;-72
2023/07/20 08:00:18;;;;;;;10.30;5.90;;;;;;;34.54;100.00;99977.69;5055737;28;20095;-72
2023/07/20 08:02:44;;;;;;;10.88;5.38;;;;;;;34.54;100.00;99909.81;5055776;28;20017;-71
2023/07/20 08:05:10;;;;;;;11.43;5.75;;;;;;;34.77;100.00;99973.72;5055357;28;20079;-72
2023/07/20 08:07:38;;;;;;;13.85;5.93;;;;;;;35.09;100.00;99985.41;5055458;28;20398;-72
2023/07/20 08:10:04;;;;;;;10.52;5.60;;;;;;;33.83;100.00;99955.91;5060934;28;20016;-72
2023/07/20 08:12:30;;;;;;;8.95;5.57;;;;;;;34.79;100.00;99976.16;5058414;28;20073;-72
2023/07/20 08:14:56;;;;;;;11.00;5.68;;;;;;;34.47;100.00;99956.53;5054137;28;20056;-73
2023/07/20 08:17:21;;;;;;;9.70;5.82;;;;;;;34.32;100.00;99966.38;5053664;28;20040;-71
2023/07/20 08:19:47;;;;;;;12.02;5.40;;;;;;;34.40;100.00;99936.34;5054647;28;20471;-72
2023/07/20 08:22:12;;;;;;;8.98;5.53;;;;;;;35.11;100.00;99986.03;5055001;28;20461;-72
2023/07/20 08:28:00;;;;;;;8.85;5.47;;;;;;;33.89;100.00;99944.56;5055288;28;20040;-72
2023/07/20 08:33:50;;;;;;;8.50;5.60;;;;;;;35.26;100.00;99928.44;5055218;28;20040;-73
2023/07/20 08:36:16;;;;;;;8.52;5.65;;;;;;;34.16;100.00;99923.63;5054858;28;20043;-74
2023/07/20 08:38:42;;;;;;;7.57;5.50;;;;;;;34.94;100.00;99967.03;5054594;28;20036;-74
2023/07/20 08:41:09;;;;;;;8.45;5.45;;;;;;;34.78;100.00;99926.94;5054582;28;20021;-74
2023/07/20 08:43:54;;;;;;;9.55;5.75;;;;;;;35.24;100.00;99938.41;5054784;28;20021;-74
2023/07/20 08:46:21;;;;;;;11.00;6.05;;;;;;;35.49;100.00;99955.38;5054518;28;20078;-72
2023/07/20 08:48:47;;;;;;;14.50;5.70;;;;;;;34.81;100.00;99955.63;5054103;28;20102;-73
2023/07/20 08:51:13;;;;;;;11.90;5.80;;;;;;;35.77;100.00;99971.03;5054345;28;20483;-72
2023/07/20 08:53:38;;;;;;;11.05;5.75;;;;;;;35.19;100.00;99956.75;5053325;28;20029;-72
2023/07/20 08:59:28;;;;;;;11.68;6.55;;;;;;;36.18;100.00;99973.41;5054612;28;20086;-73
2023/07/20 09:01:54;;;;;;;8.23;5.90;;;;;;;35.87;100.00;99975.91;5053710;28;20025;-73
2023/07/20 09:04:19;;;;;;;9.93;6.45;;;;;;;35.26;100.00;99957.56;5054023;28;20501;-72
2023/07/20 09:06:45;;;;;;;9.15;5.80;;;;;;;35.12;100.00;99910.16;5053773;28;20064;-72
2023/07/20 09:09:11;;;;;;;8.45;5.68;;;;;;;35.10;100.00;99896.31;5052766;28;20466;-71
2023/07/20 09:11:36;;;;;;;10.05;6.18;;;;;;;35.84;100.00;99950.63;5054274;28;20480;-73
2023/07/20 09:14:03;;;;;;;9.65;5.85;;;;;;;35.92;100.00;99960.19;5054519;28;20021;-73
2023/07/20 09:19:50;;;;;;;12.60;6.38;;;;;;;35.44;100.00;99927.84;5054306;28;20032;-73
2023/07/20 09:22:17;;;;;;;10.90;6.13;;;;;;;36.12;100.00;99948.56;5054023;28;20383;-73
2023/07/20 09:24:43;;;;;;;11.90;6.55;;;;;;;35.82;100.00;99910.31;5052649;28;20021;-73
2023/07/20 09:27:09;;;;;;;11.98;6.35;;;;;;;35.48;100.00;99905.28;5053692;28;20033;-73
2023/07/20 09:32:56;;;;;;;10.48;6.32;;;;;;;36.25;100.00;99908.78;5053987;28;20047;-71
2023/07/20 09:35:22;;;;;;;9.75;6.10;;;;;;;36.83;100.00;99956.44;5051865;28;20033;-72
2023/07/20 09:38:00;;;;;;;12.02;6.65;;;;;;;36.02;100.00;99948.19;5053540;28;20032;-73
2023/07/20 09:40:27;;;;;;;7.10;6.22;;;;;;;36.06;100.00;99916.78;5052122;28;20040;-72
2023/07/20 09:43:00;;;;;;;12.52;6.20;;;;;;;35.98;100.00;99909.09;5051634;28;20028;-73
2023/07/20 09:45:41;;;;;;;12.27;6.32;;;;;;;36.03;100.00;99914.59;5053546;28;20029;-72
2023/07/20 09:48:08;;;;;;;8.25;6.68;;;;;;;35.90;100.00;99910.09;5053223;28;20060;-71
2023/07/20 09:50:40;;;;;;;8.60;6.65;;;;;;;36.37;100.00;99938.09;5053301;28;20024;-71
2023/07/20 09:53:06;;;;;;;8.35;6.22;;;;;;;35.85;100.00;99879.97;5053193;28;20024;-71
2023/07/20 09:55:34;;;;;;;12.65;6.28;;;;;;;36.82;100.00;99950.34;5052941;28;20055;-71
2023/07/20 09:58:00;;;;;;;10.73;6.00;;;;;;;36.67;100.00;99899.41;5053015;28;20028;-71
2023/07/20 10:00:25;;;;;;;11.32;6.55;;;;;;;36.59;100.00;99915.56;5052808;28;20132;-72
2023/07/20 10:02:52;;;;;;;10.43;6.20;;;;;;;35.33;100.00;99857.84;5052856;28;20013;-71
2023/07/20 10:05:19;;;;;;;11.70;6.47;;;;;;;36.99;100.00;99919.66;5053083;28;20028;-72
2023/07/20 10:07:49;;;;;;;8.80;6.38;;;;;;;37.27;100.00;99884.72;5051256;28;20024;-72
2023/07/20 10:10:18;;;;;;;7.53;5.97;;;;;;;36.70;100.00;99834.56;5052321;28;20052;-71
2023/07/20 10:12:46;;;;;;;9.85;6.25;;;;;;;36.24;100.00;99877.19;5051711;28;20069;-72
2023/07/20 10:15:29;;;;;;;12.18;6.28;;;;;;;36.14;100.00;99871.53;5052738;28;20033;-72
2023/07/20 10:18:24;;;;;;;7.55;6.40;;;;;;;36.47;100.00;99891.59;5053256;28;20195;-72
2023/07/20 10:20:53;;;;;;;9.35;6.50;;;;;;;37.00;100.00;99899.25;5034594;28;20028;-71
2023/07/20 10:23:19;;;;;;;8.68;6.68;;;;;;;36.07;100.00;99839.75;5052454;28;20032;-72
2023/07/20 10:25:46;;;;;;;15.73;7.13;;;;;;;36.82;100.00;99840.78;5052571;28;20033;-71
2023/07/20 10:31:34;;;;;;;9.60;6.53;;;;;;;36.58;100.00;99852.19;5052480;28;20078;-71
2023/07/20 10:34:01;;;;;;;7.45;6.22;;;;;;;37.11;100.00;99872.81;5050909;28;20025;-72
2023/07/20 10:36:27;;;;;;;9.73;7.10;;;;;;;37.02;100.00;99860.06;5052935;28;20021;-72
2023/07/20 10:38:55;;;;;;;9.38;6.47;;;;;;;36.53;100.00;99855.47;5052542;28;20028;-73
2023/07/20 10:41:28;;;;;;;10.15;7.00;;;;;;;35.91;100.00;99839.41;5052344;28;20090;-72
2023/07/20 10:44:13;;;;;;;9.57;6.32;;;;;;;37.24;100.00;99883.31;5052638;28;20046;-71
2023/07/20 10:50:02;;;;;;;12.55;7.40;;;;;;;37.90;100.00;99891.50;5052258;28;20039;-72
2023/07/20 10:52:37;;;;;;;10.95;6.80;;;;;;;37.97;100.00;99876.31;5050712;28;20086;-72
2023/07/20 10:55:16;;;;;;;9.07;6.63;;;;;;;36.81;100.00;99858.53;5052622;28;20025;-72
2023/07/20 10:57:41;;;;;;;11.43;6.53;;;;;;;37.33;100.00;99863.47;5051807;28;20033;-72
2023/07/20 11:00:13;;;;;;;8.70;7.03;;;;;;;37.37;100.00;99866.50;5052105;28;20025;-72
2023/07/20 11:02:58;;;;;;;11.05;6.93;;;;;;;37.15;100.00;99842.19;5050082;28;20029;-73
2023/07/20 11:08:45;;;;;;;10.45;7.70;;;;;;;36.61;100.00;99791.56;5052260;28;20082;-73
2023/07/20 11:11:23;;;;;;;12.85;7.38;;;;;;;37.40;100.00;99847.47;5051592;28;20049;-72
2023/07/20 11:14:03;;;;;;;12.05;7.40;;;;;;;38.03;100.00;99848.81;5051960;28;20057;-72
2023/07/20 11:16:46;;;;;;;11.57;7.50;;;;;;;37.19;100.00;99829.28;5051920;28;20472;-72
2023/07/20 11:19:16;;;;;;;12.60;7.32;;;;;;;37.21;100.00;99828.03;5050625;28;20032;-72
2023/07/20 11:25:03;;;;;;;11.45;6.85;;;;;;;37.25;100.00;99752.28;5055313;28;20434;-72
2023/07/20 11:27:29;;;;;;;15.52;7.07;;;;;;;37.89;100.00;99820.81;5063369;28;20024;-72
2023/07/20 11:29:54;;;;;;;11.23;6.68;;;;;;;37.87;100.00;99800.81;5061582;28;20025;-73
2023/07/20 11:32:24;;;;;;;11.35;7.10;;;;;;;38.51;100.00;99853.34;5056130;28;20059;-73
2023/07/20 11:34:49;;;;;;;11.97;6.83;;;;;;;38.17;100.00;99821.03;5054497;28;20021;-73
2023/07/20 11:37:16;;;;;;;8.98;6.72;;;;;;;37.76;100.00;99834.22;5055488;28;20035;-72
2023/07/20 11:39:42;;;;;;;12.95;7.10;;;;;;;37.76;100.00;99804.19;5055607;28;20020;-73
2023/07/20 11:45:32;;;;;;;8.38;4.22;;;;;;;38.92;100.00;99824.09;5055813;28;20040;-73
2023/07/20 11:47:58;;;;;;;8.80;4.28;;;;;;;38.52;100.00;99783.16;5055214;28;20115;-72
2023/07/20 11:50:24;;;;;;;5.63;2.80;;;;;;;38.32;100.00;99802.06;5055845;28;20528;-73
2023/07/20 11:56:10;;;;;;;6.97;3.00;;;;;;;38.34;100.00;99760.13;5055697;28;20429;-72
2023/07/20 11:58:41;;;;;;;6.35;2.70;;;;;;;38.35;100.00;99803.47;5055325;28;20033;-72
2023/07/20 12:01:06;;;;;;;7.22;2.50;;;;;;;37.55;100.00;99748.91;5055146;28;20406;-72
2023/07/20 12:06:54;;;;;;;7.72;2.92;;;;;;;38.06;100.00;99807.72;5055337;28;20032;-72
2023/07/20 12:09:20;;;;;;;6.60;3.00;;;;;;;37.66;100.00;99785.34;5055267;28;20033;-71
2023/07/20 12:11:49;;;;;;;4.10;2.40;;;;;;;37.55;100.00;99802.00;5055557;28;20521;-71
2023/07/20 12:17:42;;;;;;;4.85;2.45;;;;;;;38.93;100.00;99817.69;5055268;28;20044;-71
2023/07/20 12:20:08;;;;;;;5.88;2.72;;;;;;;37.13;100.00;99759.34;5053616;28;20021;-72
2023/07/20 12:22:43;;;;;;;5.80;2.75;;;;;;;37.69;100.00;99718.50;5055140;28;20463;-70
2023/07/20 12:28:29;;;;;;;8.27;3.13;;;;;;;37.35;100.00;99711.97;5055108;28;20078;-70
2023/07/20 12:30:58;;;;;;;7.90;2.65;;;;;;;37.59;100.00;99750.88;5054295;28;20025;-70
2023/07/20 12:33:23;;;;;;;9.38;2.65;;;;;;;37.78;100.00;99759.66;5054824;28;20423;-71
2023/07/20 12:35:49;;;;;;;7.93;2.80;;;;;;;37.98;100.00;99725.66;5053612;28;20036;-70
2023/07/20 12:38:15;;;;;;;8.63;3.30;;;;;;;38.00;100.00;99752.81;5052691;28;20468;-70
2023/07/20 12:40:41;;;;;;;7.85;3.15;;;;;;;37.66;100.00;99746.28;5054667;28;20048;-70
2023/07/20 12:43:07;;;;;;;6.15;3.30;;;;;;;38.31;100.00;99757.13;5053312;28;20467;-71
2023/07/20 12:45:33;;;;;;;5.85;2.88;;;;;;;37.88;100.00;99760.75;5053151;28;20025;-71
2023/07/20 12:47:58;;;;;;;4.45;2.75;;;;;;;37.57;100.00;99722.94;5054656;28;20040;-71
2023/07/20 12:50:24;;;;;;;5.05;2.83;;;;;;;37.60;100.00;99704.69;5054432;28;20024;-70
2023/07/20 12:56:11;;;;;;;7.32;3.10;;;;;;;37.27;100.00;99741.44;5054556;28;20073;-70
2023/07/20 12:58:37;;;;;;;6.22;2.88;;;;;;;37.94;100.00;99737.78;5053627;28;20419;-70
2023/07/20 13:01:02;;;;;;;8.00;3.35;;;;;;;37.23;100.00;99735.75;5054164;28;20071;-71
2023/07/20 13:03:28;;;;;;;7.43;3.38;;;;;;;37.20;100.00;99744.13;5054364;28;20024;-71
2023/07/20 13:05:53;;;;;;;6.03;3.20;;;;;;;37.28;100.00;99722.63;5053998;28;20027;-70
2023/07/20 13:08:19;;;;;;;5.03;3.15;;;;;;;37.68;100.00;99751.38;5054033;28;20398;-71
2023/07/20 13:10:45;;;;;;;8.88;3.58;;;;;;;37.90;100.00;99752.53;5054047;28;20141;-71
2023/07/20 13:13:10;;;;;;;8.18;3.00;;;;;;;38.27;100.00;99761.25;5052668;28;20047;-70
2023/07/20 13:15:44;;;;;;;5.82;3.05;;;;;;;37.66;100.00;99745.50;5054031;28;20116;-71
2023/07/20 13:18:10;;;;;;;26.13;4.25;;;;;;;37.64;100.00;99721.81;5054311;28;20027;-71
2023/07/20 13:23:57;;;;;;;7.15;3.40;;;;;;;38.26;100.00;99755.13;5054088;28;20111;-73
2023/07/20 13:26:22;;;;;;;6.55;3.28;;;;;;;38.04;100.00;99738.06;5051942;28;20115;-73
2023/07/20 13:28:48;;;;;;;7.47;3.63;;;;;;;37.90;100.00;99733.94;5053427;28;20444;-71
2023/07/20 13:31:13;;;;;;;4.93;3.22;;;;;;;37.63;100.00;99671.59;5054036;28;20017;-71
2023/07/20 13:37:02;;;;;;;4.43;3.10;;;;;;;37.34;100.00;99644.00;5053687;28;20164;-70
2023/07/20 13:39:27;;;;;;;7.90;3.00;;;;;;;36.58;100.00;99693.13;5053307;28;20025;-71
2023/07/20 13:41:56;;;;;;;5.10;2.70;;;;;;;36.13;100.00;99671.25;5053472;28;20039;-71
2023/07/20 13:47:44;;;;;;;8.77;3.25;;;;;;;34.80;100.00;99619.09;5053184;28;20086;-73
2023/07/20 13:50:10;;;;;;;7.60;3.40;;;;;;;34.38;100.00;99595.78;5053087;28;20037;-72
2023/07/20 13:52:36;;;;;;;7.20;3.40;;;;;;;34.15;100.00;99628.91;5053360;28;20031;-71
2023/07/20 13:55:02;;;;;;;10.80;3.33;;;;;;;33.57;100.00;99583.75;5053222;28;20464;-72
2023/07/20 13:57:27;;;;;;;7.75;3.10;;;;;;;34.16;100.00;99636.63;5052881;28;20032;-71
2023/07/20 13:59:53;;;;;;;9.23;3.85;;;;;;;33.84;100.00;99653.19;5052953;28;20020;-73
2023/07/20 14:02:18;;;;;;;9.82;3.95;;;;;;;33.92;100.00;99651.19;5053613;28;20474;-73
2023/07/20 14:04:44;;;;;;;14.38;4.10;;;;;;;33.56;100.00;99665.72;5053314;28;20017;-72